createdAt,value
2023-02-04T00:01:25.796Z,8.03
2023-02-04T00:03:52.613Z,8.03
2023-02-04T00:06:19.764Z,8.03
2023-02-04T00:08:46.615Z,8.06
2023-02-04T00:11:13.481Z,8.04
2023-02-04T00:13:40.278Z,8.05
2023-02-04T00:16:07.435Z,8.05
2023-02-04T00:18:34.461Z,8.05
2023-02-04T00:21:01.410Z,8.04
2023-02-04T00:23:28.188Z,8.06
2023-02-04T00:25:55.056Z,8.05
2023-02-04T00:28:21.899Z,8.05
2023-02-04T00:30:48.864Z,8.05
2023-02-04T00:33:16.867Z,8.07
2023-02-04T00:35:43.818Z,8.06
2023-02-04T00:38:10.588Z,8.08
2023-02-04T00:40:37.697Z,8.07
2023-02-04T00:43:04.921Z,8.07
2023-02-04T00:45:31.940Z,8.07
2023-02-04T00:47:59.597Z,8.08
2023-02-04T00:50:26.693Z,8.08
2023-02-04T00:52:53.498Z,8.09
2023-02-04T00:55:20.516Z,8.11
2023-02-04T00:57:47.687Z,8.11
2023-02-04T01:00:16.588Z,8.12
2023-02-04T01:02:44.483Z,8.12
2023-02-04T01:05:11.625Z,8.12
2023-02-04T01:07:38.624Z,8.13
2023-02-04T01:10:06.372Z,8.13
2023-02-04T01:12:33.306Z,8.14
2023-02-04T01:15:00.697Z,8.14
2023-02-04T01:17:27.654Z,8.14
2023-02-04T01:19:54.520Z,8.15
2023-02-04T01:22:21.518Z,8.16
2023-02-04T01:24:49.823Z,8.17
2023-02-04T01:27:35.188Z,8.19
2023-02-04T01:30:05.998Z,8.19
2023-02-04T01:32:34.082Z,8.19
2023-02-04T01:35:01.031Z,8.19
2023-02-04T01:37:28.153Z,8.20
2023-02-04T01:39:54.937Z,8.20
2023-02-04T01:42:22.031Z,8.19
2023-02-04T01:44:49.160Z,8.19
2023-02-04T01:47:16.438Z,8.19
2023-02-04T01:49:43.488Z,8.20
2023-02-04T01:52:11.552Z,8.21
2023-02-04T01:54:38.552Z,8.19
2023-02-04T01:57:10.153Z,8.20
2023-02-04T01:59:41.149Z,8.18
2023-02-04T02:02:45.616Z,8.18
2023-02-04T02:05:21.703Z,8.17
2023-02-04T02:07:50.079Z,8.17
2023-02-04T02:10:18.309Z,8.17
2023-02-04T02:12:46.618Z,8.18
2023-02-04T02:15:15.739Z,8.17
2023-02-04T02:17:44.049Z,8.17
2023-02-04T02:20:15.536Z,8.18
2023-02-04T02:23:02.459Z,8.18
2023-02-04T02:25:29.550Z,8.20
2023-02-04T02:27:57.953Z,8.19
2023-02-04T02:30:25.428Z,8.20
2023-02-04T02:32:52.852Z,8.22
2023-02-04T02:35:20.444Z,8.24
2023-02-04T02:37:47.298Z,8.23
2023-02-04T02:40:15.015Z,8.22
2023-02-04T02:42:43.845Z,8.22
2023-02-04T02:45:22.777Z,8.23
2023-02-04T02:47:50.563Z,8.26
2023-02-04T02:50:20.204Z,8.24
2023-02-04T02:52:47.483Z,8.26
2023-02-04T02:55:19.517Z,8.26
2023-02-04T02:57:48.598Z,8.24
2023-02-04T03:00:17.737Z,8.26
2023-02-04T03:02:50.078Z,8.26
2023-02-04T03:05:17.206Z,8.28
2023-02-04T03:07:44.124Z,8.27
2023-02-04T03:10:11.262Z,8.29
2023-02-04T03:12:38.709Z,8.24
2023-02-04T03:15:06.161Z,8.27
2023-02-04T03:17:33.178Z,8.27
2023-02-04T03:20:00.837Z,8.28
2023-02-04T03:22:28.580Z,8.27
2023-02-04T03:24:58.450Z,8.28
2023-02-04T03:27:25.702Z,8.28
2023-02-04T03:29:52.555Z,8.28
2023-02-04T03:32:19.433Z,8.27
2023-02-04T03:34:46.225Z,8.28
2023-02-04T03:37:13.175Z,8.27
2023-02-04T03:39:40.430Z,8.27
2023-02-04T03:42:07.614Z,8.27
2023-02-04T03:44:34.395Z,8.27
2023-02-04T03:47:01.364Z,8.28
2023-02-04T03:49:28.530Z,8.30
2023-02-04T03:51:55.422Z,8.29
2023-02-04T03:54:22.344Z,8.30
2023-02-04T03:56:49.302Z,8.31
2023-02-04T03:59:16.105Z,8.32
2023-02-04T04:01:42.984Z,8.32
2023-02-04T04:04:09.786Z,8.30
2023-02-04T04:06:36.791Z,8.32
2023-02-04T04:09:05.110Z,8.32
2023-02-04T04:11:32.145Z,8.31
2023-02-04T04:13:59.230Z,8.32
2023-02-04T04:16:26.212Z,8.32
2023-02-04T04:18:53.101Z,8.33
2023-02-04T04:21:20.146Z,8.34
2023-02-04T04:23:46.928Z,8.35
2023-02-04T04:26:13.927Z,8.33
2023-02-04T04:28:40.759Z,8.33
2023-02-04T04:31:07.801Z,8.35
2023-02-04T04:33:34.712Z,8.32
2023-02-04T04:36:01.656Z,8.34
2023-02-04T04:38:28.471Z,8.34
2023-02-04T04:40:55.479Z,8.34
2023-02-04T04:43:22.424Z,8.37
2023-02-04T04:45:49.461Z,8.36
2023-02-04T04:48:16.410Z,8.35
2023-02-04T04:50:43.445Z,8.36
2023-02-04T04:53:11.454Z,8.37
2023-02-04T04:55:38.842Z,8.35
2023-02-04T04:58:07.199Z,8.37
2023-02-04T05:00:34.617Z,8.36
2023-02-04T05:03:01.669Z,8.37
2023-02-04T05:05:28.671Z,8.37
2023-02-04T05:07:55.456Z,8.37
2023-02-04T05:10:22.408Z,8.37
2023-02-04T05:12:49.514Z,8.38
2023-02-04T05:15:16.501Z,8.38
2023-02-04T05:17:43.295Z,8.39
2023-02-04T05:20:10.523Z,8.38
2023-02-04T05:22:37.406Z,8.37
2023-02-04T05:25:04.750Z,8.37
2023-02-04T05:27:31.565Z,8.37
2023-02-04T05:29:58.503Z,8.37
2023-02-04T05:32:25.376Z,8.37
2023-02-04T05:34:52.461Z,8.38
2023-02-04T05:37:21.063Z,8.38
2023-02-04T05:39:48.089Z,8.37
2023-02-04T05:42:15.035Z,8.41
2023-02-04T05:44:41.919Z,8.39
2023-02-04T05:47:08.739Z,8.41
2023-02-04T05:49:36.010Z,8.39
2023-02-04T05:52:04.055Z,8.38
2023-02-04T05:54:31.117Z,8.38
2023-02-04T05:56:58.031Z,8.39
2023-02-04T05:59:25.131Z,8.39
2023-02-04T06:01:51.952Z,8.41
2023-02-04T06:04:19.111Z,8.41
2023-02-04T06:06:46.343Z,8.39
2023-02-04T06:09:13.679Z,8.39
2023-02-04T06:11:40.540Z,8.39
2023-02-04T06:14:07.992Z,8.41
2023-02-04T06:16:34.997Z,8.42
2023-02-04T06:19:02.078Z,8.39
2023-02-04T06:21:29.064Z,8.41
2023-02-04T06:23:55.971Z,8.42
2023-02-04T06:26:22.856Z,8.41
2023-02-04T06:28:49.647Z,8.43
2023-02-04T06:31:16.550Z,8.43
2023-02-04T06:33:43.532Z,8.44
2023-02-04T06:36:10.305Z,8.45
2023-02-04T06:38:37.244Z,8.43
2023-02-04T06:41:04.103Z,8.44
2023-02-04T06:43:31.132Z,8.45
2023-02-04T06:45:58.340Z,8.44
2023-02-04T06:48:25.401Z,8.44
2023-02-04T06:50:52.270Z,8.44
2023-02-04T06:53:19.295Z,8.44
2023-02-04T06:55:46.100Z,8.43
2023-02-04T06:58:13.514Z,8.42
2023-02-04T07:00:40.387Z,8.45
2023-02-04T07:03:07.603Z,8.43
2023-02-04T07:05:34.551Z,8.44
2023-02-04T07:08:01.902Z,8.44
2023-02-04T07:10:28.914Z,8.44
2023-02-04T07:12:55.935Z,8.44
2023-02-04T07:15:22.718Z,8.45
2023-02-04T07:17:49.772Z,8.45
2023-02-04T07:20:16.833Z,8.44
2023-02-04T07:22:43.691Z,8.45
2023-02-04T07:25:11.583Z,8.46
2023-02-04T07:27:38.490Z,8.47
2023-02-04T07:30:05.560Z,8.47
2023-02-04T07:32:33.578Z,8.47
2023-02-04T07:35:00.775Z,8.47
2023-02-04T07:37:27.988Z,8.47
2023-02-04T07:39:54.770Z,8.47
2023-02-04T07:42:21.673Z,8.46
2023-02-04T07:44:54.493Z,8.47
2023-02-04T07:47:21.396Z,8.49
2023-02-04T07:49:48.286Z,8.49
2023-02-04T07:52:15.439Z,8.48
2023-02-04T07:54:42.977Z,8.49
2023-02-04T07:57:10.080Z,8.48
2023-02-04T07:59:37.037Z,8.48
2023-02-04T08:02:04.107Z,8.49
2023-02-04T08:04:30.926Z,8.46
2023-02-04T08:06:57.895Z,8.44
2023-02-04T08:09:27.179Z,8.45
2023-02-04T08:11:54.212Z,8.44
2023-02-04T08:14:21.318Z,8.43
2023-02-04T08:16:48.323Z,8.44
2023-02-04T08:19:19.203Z,8.43
2023-02-04T08:21:46.263Z,8.45
2023-02-04T08:24:13.746Z,8.45
2023-02-04T08:26:42.439Z,8.44
2023-02-04T08:29:09.637Z,8.46
2023-02-04T08:31:37.818Z,8.46
2023-02-04T08:34:05.788Z,8.47
2023-02-04T08:36:33.378Z,8.47
2023-02-04T08:39:00.177Z,8.48
2023-02-04T08:41:27.080Z,8.48
2023-02-04T08:43:53.907Z,8.47
2023-02-04T08:46:20.902Z,8.48
2023-02-04T08:48:48.131Z,8.46
2023-02-04T08:51:15.485Z,8.47
2023-02-04T08:53:42.319Z,8.48
2023-02-04T08:56:10.462Z,8.49
2023-02-04T08:58:37.348Z,8.51
2023-02-04T09:01:04.538Z,8.51
2023-02-04T09:03:31.468Z,8.52
2023-02-04T09:05:58.328Z,8.51
2023-02-04T09:08:25.134Z,8.52
2023-02-04T09:10:52.244Z,8.53
2023-02-04T09:13:19.218Z,8.55
2023-02-04T09:15:46.205Z,8.52
2023-02-04T09:18:21.978Z,8.51
2023-02-04T09:20:49.711Z,8.52
2023-02-04T09:23:17.139Z,8.52
2023-02-04T09:25:45.558Z,8.55
2023-02-04T09:28:14.282Z,8.56
2023-02-04T09:30:43.141Z,8.57
2023-02-04T09:33:12.051Z,8.58
2023-02-04T09:35:39.312Z,8.60
2023-02-04T09:38:06.398Z,8.61
2023-02-04T09:40:36.721Z,8.63
2023-02-04T09:43:06.016Z,8.61
2023-02-04T09:45:36.684Z,8.61
2023-02-04T09:48:05.388Z,8.63
2023-02-04T09:50:33.445Z,8.62
2023-02-04T09:53:04.279Z,8.62
2023-02-04T09:55:35.045Z,8.63
2023-02-04T09:58:02.860Z,8.65
2023-02-04T10:00:31.568Z,8.65
2023-02-04T10:03:02.106Z,8.65
2023-02-04T10:05:32.188Z,8.65
2023-02-04T10:07:59.821Z,8.66
2023-02-04T10:10:28.092Z,8.64
2023-02-04T10:13:00.426Z,8.66
2023-02-04T10:15:28.288Z,8.72
2023-02-04T10:18:01.548Z,8.74
2023-02-04T10:20:28.661Z,8.73
2023-02-04T10:22:56.231Z,8.73
2023-02-04T10:25:25.744Z,8.75
2023-02-04T10:27:53.826Z,8.75
2023-02-04T10:30:23.845Z,8.77
2023-02-04T10:32:51.459Z,8.76
2023-02-04T10:35:20.585Z,8.76
2023-02-04T10:37:48.136Z,8.75
2023-02-04T10:40:35.621Z,8.75
2023-02-04T10:43:16.331Z,8.76
2023-02-04T10:45:48.380Z,8.77
2023-02-04T10:48:17.741Z,8.78
2023-02-04T10:50:46.423Z,8.80
2023-02-04T10:53:35.425Z,8.80
2023-02-04T10:56:05.504Z,8.82
2023-02-04T10:58:32.817Z,8.82
2023-02-04T11:00:59.703Z,8.83
2023-02-04T11:03:30.863Z,8.85
2023-02-04T11:06:00.528Z,8.85
2023-02-04T11:08:32.140Z,8.85
2023-02-04T11:11:07.204Z,8.85
2023-02-04T11:13:41.938Z,8.86
2023-02-04T11:16:17.774Z,8.89
2023-02-04T11:18:46.838Z,8.88
2023-02-04T11:21:26.238Z,8.88
2023-02-04T11:24:11.626Z,8.88
2023-02-04T11:26:53.170Z,8.89
2023-02-04T11:29:29.884Z,8.88
2023-02-04T11:32:00.900Z,8.88
2023-02-04T11:34:30.090Z,8.90
2023-02-04T11:36:57.041Z,8.90
2023-02-04T11:39:29.355Z,8.91
2023-02-04T11:41:56.372Z,8.91
2023-02-04T11:44:25.178Z,8.91
2023-02-04T11:46:55.669Z,8.93
2023-02-04T11:49:24.826Z,8.92
2023-02-04T11:51:51.927Z,8.92
2023-02-04T11:54:19.838Z,8.92
2023-02-04T11:56:47.087Z,8.93
2023-02-04T11:59:14.942Z,8.90
2023-02-04T12:01:41.942Z,8.93
2023-02-04T12:04:23.853Z,8.92
2023-02-04T12:07:02.072Z,8.94
2023-02-04T12:09:31.215Z,8.94
2023-02-04T12:12:02.724Z,8.94
2023-02-04T12:14:38.217Z,8.93
2023-02-04T12:17:20.511Z,8.92
2023-02-04T12:19:47.524Z,8.96
2023-02-04T12:22:15.721Z,8.94
2023-02-04T12:24:44.072Z,8.95
2023-02-04T12:27:11.058Z,8.96
2023-02-04T12:29:38.099Z,8.93
2023-02-04T12:32:05.051Z,8.92
2023-02-04T12:34:32.145Z,8.93
2023-02-04T12:36:58.939Z,8.92
2023-02-04T12:39:25.949Z,8.91
2023-02-04T12:41:52.700Z,8.91
2023-02-04T12:44:19.706Z,8.94
2023-02-04T12:46:46.504Z,8.93
2023-02-04T12:49:13.508Z,8.94
2023-02-04T12:51:40.546Z,8.96
2023-02-04T12:54:07.484Z,8.94
2023-02-04T12:56:34.302Z,8.95
2023-02-04T12:59:01.338Z,8.98
2023-02-04T13:01:28.172Z,8.96
2023-02-04T13:03:55.089Z,8.96
2023-02-04T13:06:21.908Z,8.95
2023-02-04T13:08:48.847Z,8.97
2023-02-04T13:11:15.751Z,8.95
2023-02-04T13:13:42.798Z,8.93
2023-02-04T13:16:09.648Z,8.94
2023-02-04T13:18:36.529Z,8.94
2023-02-04T13:21:03.535Z,8.94
2023-02-04T13:23:30.371Z,8.93
2023-02-04T13:25:57.300Z,8.94
2023-02-04T13:28:24.192Z,8.92
2023-02-04T13:30:51.158Z,8.92
2023-02-04T13:33:18.194Z,8.91
2023-02-04T13:35:45.324Z,8.90
2023-02-04T13:38:12.493Z,8.90
2023-02-04T13:40:39.384Z,8.90
2023-02-04T13:43:06.414Z,8.92
2023-02-04T13:45:33.801Z,8.91
2023-02-04T13:48:01.094Z,8.88
2023-02-04T13:50:27.936Z,8.87
2023-02-04T13:52:55.431Z,8.87
2023-02-04T13:55:22.375Z,8.86
2023-02-04T13:57:49.552Z,8.87
2023-02-04T14:00:16.449Z,8.86
2023-02-04T14:02:43.403Z,8.86
2023-02-04T14:05:10.264Z,8.86
2023-02-04T14:07:37.165Z,8.87
2023-02-04T14:10:04.722Z,8.89
2023-02-04T14:12:31.573Z,8.89
2023-02-04T14:14:58.508Z,8.91
2023-02-04T14:17:25.694Z,8.91
2023-02-04T14:19:52.501Z,8.91
2023-02-04T14:22:19.455Z,8.92
2023-02-04T14:24:47.617Z,8.91
2023-02-04T14:27:16.254Z,8.91
2023-02-04T14:29:43.038Z,8.91
2023-02-04T14:32:10.026Z,8.91
2023-02-04T14:34:36.807Z,8.94
2023-02-04T14:37:03.775Z,8.93
2023-02-04T14:39:30.719Z,8.94
2023-02-04T14:41:57.763Z,8.93
2023-02-04T14:44:24.581Z,8.94
2023-02-04T14:46:51.507Z,8.95
2023-02-04T14:49:18.346Z,8.95
2023-02-04T14:51:45.340Z,8.95
2023-02-04T14:54:12.294Z,8.97
2023-02-04T14:56:39.362Z,8.97
2023-02-04T14:59:06.315Z,9.00
2023-02-04T15:01:33.434Z,9.00
2023-02-04T15:04:00.371Z,9.01
2023-02-04T15:06:27.321Z,8.97
2023-02-04T15:08:54.165Z,9.00
2023-02-04T15:11:21.125Z,9.00
2023-02-04T15:13:47.991Z,9.01
2023-02-04T15:16:15.177Z,9.01
2023-02-04T15:18:42.429Z,9.02
2023-02-04T15:21:09.732Z,9.00
2023-02-04T15:23:36.647Z,9.00
2023-02-04T15:26:03.929Z,9.01
2023-02-04T15:28:31.528Z,9.00
2023-02-04T15:30:58.789Z,9.01
2023-02-04T15:33:25.875Z,9.00
2023-02-04T15:35:52.904Z,9.05
2023-02-04T15:38:20.205Z,9.11
2023-02-04T15:40:47.317Z,9.12
2023-02-04T15:43:14.111Z,9.11
2023-02-04T15:45:41.537Z,9.11
2023-02-04T15:48:08.670Z,9.14
2023-02-04T15:50:36.284Z,9.15
2023-02-04T15:53:03.921Z,9.15
2023-02-04T15:55:31.173Z,9.16
2023-02-04T15:57:58.082Z,9.17
2023-02-04T16:00:25.292Z,9.17
2023-02-04T16:02:52.469Z,9.18
2023-02-04T16:05:19.544Z,9.18
2023-02-04T16:07:46.367Z,9.19
2023-02-04T16:10:14.132Z,9.19
2023-02-04T16:12:41.082Z,9.19
2023-02-04T16:15:08.712Z,9.20
2023-02-04T16:17:35.610Z,9.22
2023-02-04T16:20:03.943Z,9.22
2023-02-04T16:22:30.916Z,9.20
2023-02-04T16:24:57.886Z,9.23
2023-02-04T16:27:26.823Z,9.25
2023-02-04T16:29:56.481Z,9.24
2023-02-04T16:32:23.986Z,9.10
2023-02-04T16:34:50.947Z,9.00
2023-02-04T16:37:17.996Z,8.96
2023-02-04T16:39:45.462Z,8.89
2023-02-04T16:42:12.747Z,8.89
2023-02-04T16:44:39.618Z,8.85
2023-02-04T16:47:08.767Z,8.86
2023-02-04T16:49:36.406Z,8.80
2023-02-04T16:52:07.097Z,8.80
2023-02-04T16:54:35.029Z,8.76
2023-02-04T16:57:03.385Z,8.71
2023-02-04T16:59:31.059Z,8.68
2023-02-04T17:01:59.610Z,8.70
2023-02-04T17:04:26.573Z,8.71
2023-02-04T17:06:53.997Z,8.61
2023-02-04T17:09:20.919Z,8.59
2023-02-04T17:11:47.737Z,8.62
2023-02-04T17:14:15.986Z,8.58
2023-02-04T17:16:47.344Z,8.60
2023-02-04T17:19:17.528Z,8.59
2023-02-04T17:21:45.434Z,8.62
2023-02-04T17:24:12.495Z,8.59
2023-02-04T17:26:40.497Z,8.58
2023-02-04T17:29:17.971Z,8.58
2023-02-04T17:31:45.042Z,8.49
2023-02-04T17:34:11.942Z,8.46
2023-02-04T17:36:39.194Z,8.44
2023-02-04T17:39:07.659Z,8.48
2023-02-04T17:41:34.606Z,8.39
2023-02-04T17:44:03.486Z,8.28
2023-02-04T17:46:31.351Z,8.16
2023-02-04T17:48:58.779Z,8.13
2023-02-04T17:51:25.892Z,8.06
2023-02-04T17:53:53.214Z,8.06
2023-02-04T17:56:21.516Z,8.11
2023-02-04T17:58:49.716Z,8.11
2023-02-04T18:01:23.589Z,7.93
2023-02-04T18:03:51.372Z,7.98
2023-02-04T18:06:24.575Z,7.97
2023-02-04T18:08:52.981Z,8.01
2023-02-04T18:11:27.400Z,7.97
2023-02-04T18:14:00.000Z,7.91
2023-02-04T18:16:34.734Z,7.85
2023-02-04T18:19:20.910Z,7.79
2023-02-04T18:21:49.564Z,7.77
2023-02-04T18:24:34.016Z,7.78
2023-02-04T18:27:09.072Z,7.76
2023-02-04T18:29:38.630Z,7.72
2023-02-04T18:32:08.974Z,7.73
2023-02-04T18:34:41.595Z,7.78
2023-02-04T18:37:37.614Z,7.75
2023-02-04T18:40:11.697Z,7.75
2023-02-04T18:42:41.096Z,7.75
2023-02-04T18:45:31.493Z,7.67
2023-02-04T18:48:17.369Z,7.62
2023-02-04T18:50:44.592Z,7.65
2023-02-04T18:53:14.984Z,7.60
2023-02-04T18:55:48.016Z,7.61
2023-02-04T18:58:34.627Z,7.57
2023-02-04T19:01:32.343Z,7.57
2023-02-04T19:04:01.993Z,7.59
2023-02-04T19:06:33.176Z,7.56
2023-02-04T19:09:20.345Z,7.56
2023-02-04T19:11:56.525Z,7.54
2023-02-04T19:17:28.602Z,7.46
2023-02-04T19:20:00.875Z,7.47
2023-02-04T19:23:03.825Z,7.41
2023-02-04T19:25:40.287Z,7.44
2023-02-04T19:31:00.377Z,7.32
2023-02-04T19:33:42.757Z,7.30
2023-02-04T19:36:38.111Z,7.30
2023-02-04T19:39:27.217Z,7.27
2023-02-04T19:41:54.132Z,7.30
2023-02-04T19:44:46.428Z,7.30
2023-02-04T19:47:25.583Z,7.27
2023-02-04T19:50:01.847Z,7.19
2023-02-04T19:52:42.531Z,7.24
2023-02-04T19:55:18.827Z,7.26
2023-02-04T19:57:49.683Z,7.20
2023-02-04T20:00:34.540Z,7.20
2023-02-04T20:03:10.658Z,7.22
2023-02-04T20:05:37.947Z,7.20
2023-02-04T20:08:42.420Z,7.15
2023-02-04T20:11:31.359Z,7.19
2023-02-04T20:14:29.199Z,7.17
2023-02-04T20:17:00.262Z,7.23
2023-02-04T20:19:30.104Z,7.22
2023-02-04T20:22:18.952Z,7.17
2023-02-04T20:24:56.648Z,7.16
2023-02-04T20:27:31.000Z,7.15
2023-02-04T20:30:11.839Z,7.05
2023-02-04T20:32:45.729Z,7.05
2023-02-04T20:35:12.784Z,7.07
2023-02-04T20:37:43.913Z,7.05
2023-02-04T20:40:21.485Z,7.05
2023-02-04T20:42:54.808Z,7.08
2023-02-04T20:45:38.317Z,7.10
2023-02-04T20:48:17.565Z,7.11
2023-02-04T20:50:47.020Z,7.12
2023-02-04T20:53:17.027Z,7.09
2023-02-04T20:55:49.432Z,7.07
2023-02-04T20:58:19.322Z,7.03
2023-02-04T21:00:52.139Z,6.95
2023-02-04T21:03:51.304Z,6.93
2023-02-04T21:06:29.928Z,6.94
2023-02-04T21:08:58.710Z,6.85
2023-02-04T21:11:26.367Z,6.84
2023-02-04T21:13:54.339Z,6.80
2023-02-04T21:16:21.851Z,6.87
2023-02-04T21:18:49.013Z,6.85
2023-02-04T21:21:16.405Z,6.79
2023-02-04T21:23:43.364Z,6.82
2023-02-04T21:26:10.495Z,6.85
2023-02-04T21:28:37.567Z,6.85
2023-02-04T21:31:04.770Z,6.85
2023-02-04T21:33:32.110Z,6.88
2023-02-04T21:35:59.113Z,6.86
2023-02-04T21:38:26.001Z,6.86
2023-02-04T21:40:52.910Z,6.85
2023-02-04T21:43:19.956Z,6.85
2023-02-04T21:45:46.825Z,6.87
2023-02-04T21:48:14.903Z,6.86
2023-02-04T21:50:41.892Z,6.85
2023-02-04T21:53:10.089Z,6.85
2023-02-04T21:55:37.563Z,6.84
2023-02-04T21:58:05.769Z,6.88
2023-02-04T22:00:32.814Z,6.88
2023-02-04T22:03:00.107Z,6.85
2023-02-04T22:05:27.038Z,6.84
2023-02-04T22:07:53.977Z,6.87
2023-02-04T22:10:23.812Z,6.80
2023-02-04T22:12:51.560Z,6.83
2023-02-04T22:15:18.741Z,6.85
2023-02-04T22:17:45.726Z,6.85
2023-02-04T22:20:15.733Z,6.80
2023-02-04T22:22:47.192Z,6.76
2023-02-04T22:25:16.868Z,6.73
2023-02-04T22:27:43.953Z,6.73
2023-02-04T22:30:12.608Z,6.73
2023-02-04T22:32:39.768Z,6.74
2023-02-04T22:35:10.094Z,6.71
2023-02-04T22:37:41.294Z,6.72
2023-02-04T22:40:10.509Z,6.71
2023-02-04T22:42:37.331Z,6.72
2023-02-04T22:45:05.244Z,6.69
2023-02-04T22:47:32.147Z,6.66
2023-02-04T22:49:59.096Z,6.66
2023-02-04T22:52:26.173Z,6.64
2023-02-04T22:54:53.319Z,6.67
2023-02-04T22:57:20.158Z,6.65
2023-02-04T22:59:47.210Z,6.66
2023-02-04T23:02:14.067Z,6.63
2023-02-04T23:04:43.900Z,6.63
2023-02-04T23:07:12.374Z,6.59
2023-02-04T23:09:39.256Z,6.58
2023-02-04T23:12:15.353Z,6.55
2023-02-04T23:14:47.078Z,6.53
2023-02-04T23:17:15.554Z,6.51
2023-02-04T23:19:42.846Z,6.53
2023-02-04T23:22:11.864Z,6.49
2023-02-04T23:24:39.908Z,6.45
2023-02-04T23:27:08.339Z,6.37
2023-02-04T23:29:38.008Z,6.43
2023-02-04T23:32:05.211Z,6.42
2023-02-04T23:34:32.278Z,6.40
2023-02-04T23:36:59.303Z,6.29
2023-02-04T23:39:26.339Z,6.35
2023-02-04T23:41:53.389Z,6.26
2023-02-04T23:44:20.469Z,6.29
2023-02-04T23:46:47.610Z,6.30
2023-02-04T23:49:15.599Z,6.31
2023-02-04T23:51:42.646Z,6.29
2023-02-04T23:54:09.465Z,6.28
2023-02-04T23:56:36.503Z,6.28
2023-02-04T23:59:04.269Z,6.30
